Time;durP1;ratioP1;P1;durP2;ratioP2;P2;SDS_P1;SDS_P2;PMS_P1;PMS_P2;Temp;Humidity;BMP_temperature;BMP_pressure;BME280_temperature;BME280_humidity;BME280_pressure;Samples;Min_cycle;Max_cycle;Signal;HPM_P1;HPM_P2
2022/04/01 00:02:04;;;;;;;4.30;2.20;;;;;;;;;;5002355;28;20448;-77
2022/04/01 00:04:31;;;;;;;3.47;2.10;;;;;;;;;;5002065;28;20434;-76
2022/04/01 00:06:58;;;;;;;3.40;2.40;;;;;;;;;;4999526;28;20505;-77
2022/04/01 00:09:24;;;;;;;3.25;1.85;;;;;;;;;;4999567;28;20948;-79
2022/04/01 00:11:52;;;;;;;5.13;2.60;;;;;;;;;;4999518;28;20420;-77
2022/04/01 00:14:18;;;;;;;2.78;2.20;;;;;;;;;;4999851;28;20479;-77
2022/04/01 00:16:44;;;;;;;3.83;2.38;;;;;;;;;;4998651;28;20421;-77
2022/04/01 00:19:12;;;;;;;3.17;2.10;;;;;;;;;;5002119;28;20446;-78
2022/04/01 00:21:40;;;;;;;4.20;2.35;;;;;;;;;;4997994;28;20428;-77
2022/04/01 00:24:07;;;;;;;3.25;2.30;;;;;;;;;;4998955;28;21044;-78
2022/04/01 00:26:33;;;;;;;5.20;2.40;;;;;;;;;;4996888;28;21067;-77
2022/04/01 00:28:59;;;;;;;3.80;2.10;;;;;;;;;;4997873;28;20440;-78
2022/04/01 00:31:25;;;;;;;3.25;2.20;;;;;;;;;;4999771;28;20456;-77
2022/04/01 00:34:15;;;;;;;2.72;2.10;;;;;;;;;;4998132;28;20442;-77
2022/04/01 00:36:40;;;;;;;4.20;2.38;;;;;;;;;;4998689;28;20421;-78
2022/04/01 00:39:06;;;;;;;3.28;2.00;;;;;;;;;;4998316;28;20439;-78
2022/04/01 00:41:32;;;;;;;3.53;2.10;;;;;;;;;;4997501;28;20430;-78
2022/04/01 00:44:11;;;;;;;6.05;1.90;;;;;;;;;;5000471;28;20442;-79
2022/04/01 00:46:39;;;;;;;3.85;2.05;;;;;;;;;;4997232;28;20463;-78
2022/04/01 00:49:05;;;;;;;2.53;1.90;;;;;;;;;;4997533;28;20465;-77
2022/04/01 00:51:32;;;;;;;4.00;2.50;;;;;;;;;;4999295;28;20475;-78
2022/04/01 00:53:59;;;;;;;2.92;2.30;;;;;;;;;;4997233;28;20956;-77
2022/04/01 00:56:30;;;;;;;3.60;2.10;;;;;;;;;;4998064;28;20427;-77
2022/04/01 00:58:57;;;;;;;2.10;1.90;;;;;;;;;;4998490;28;20434;-77
2022/04/01 01:01:23;;;;;;;2.30;1.80;;;;;;;;;;4999009;28;20431;-77
2022/04/01 01:03:50;;;;;;;4.35;2.15;;;;;;;;;;4997023;28;20485;-77
2022/04/01 01:06:17;;;;;;;3.47;2.15;;;;;;;;;;4999206;28;20496;-78
2022/04/01 01:08:43;;;;;;;2.20;1.65;;;;;;;;;;4997641;28;20415;-77
2022/04/01 01:11:11;;;;;;;3.00;2.00;;;;;;;;;;4998367;28;20424;-77
2022/04/01 01:13:37;;;;;;;2.40;1.90;;;;;;;;;;4934426;28;1704657;-78
2022/04/01 01:16:04;;;;;;;2.67;1.50;;;;;;;;;;4999802;28;20496;-78
2022/04/01 01:18:30;;;;;;;3.25;2.08;;;;;;;;;;4999351;28;20435;-79
2022/04/01 01:20:56;;;;;;;4.88;2.00;;;;;;;;;;4999087;28;20859;-77
2022/04/01 01:23:27;;;;;;;3.15;1.70;;;;;;;;;;4999651;28;20767;-77
2022/04/01 01:25:55;;;;;;;2.38;1.90;;;;;;;;;;5000435;28;20419;-77
2022/04/01 01:28:21;;;;;;;2.78;2.00;;;;;;;;;;4999109;28;20438;-78
2022/04/01 01:30:48;;;;;;;3.10;1.90;;;;;;;;;;4996440;28;20524;-77
2022/04/01 01:33:14;;;;;;;1.73;1.50;;;;;;;;;;5003463;28;20433;-77
2022/04/01 01:35:40;;;;;;;2.67;1.75;;;;;;;;;;5005821;28;20419;-78
2022/04/01 01:38:08;;;;;;;2.30;1.70;;;;;;;;;;5005738;28;20435;-77
2022/04/01 01:40:34;;;;;;;4.07;1.90;;;;;;;;;;5006209;28;20416;-77
2022/04/01 01:43:02;;;;;;;3.50;1.70;;;;;;;;;;5007320;28;20470;-77
2022/04/01 01:45:29;;;;;;;3.30;1.70;;;;;;;;;;5004380;28;20918;-78
2022/04/01 01:47:55;;;;;;;3.40;1.52;;;;;;;;;;5005704;28;20440;-78
2022/04/01 01:55:50;;;;;;;2.70;1.42;;;;;;;;;;5005236;28;21023;-77
2022/04/01 01:58:18;;;;;;;1.92;1.50;;;;;;;;;;5005426;28;20484;-77
2022/04/01 02:00:45;;;;;;;2.05;1.40;;;;;;;;;;5005330;28;20839;-77
2022/04/01 02:03:11;;;;;;;4.70;1.80;;;;;;;;;;5004264;28;20432;-77
2022/04/01 02:05:38;;;;;;;3.70;1.60;;;;;;;;;;5006083;28;20838;-77
2022/04/01 02:08:05;;;;;;;4.20;1.38;;;;;;;;;;5005374;28;20502;-75
2022/04/01 02:10:31;;;;;;;3.53;1.40;;;;;;;;;;5005887;28;21173;-77
2022/04/01 02:12:58;;;;;;;3.70;1.42;;;;;;;;;;5005334;28;20778;-78
2022/04/01 02:15:25;;;;;;;2.53;1.30;;;;;;;;;;5006753;28;20798;-78
2022/04/01 02:17:51;;;;;;;4.05;1.55;;;;;;;;;;5007689;28;20443;-77
2022/04/01 02:20:18;;;;;;;2.35;1.50;;;;;;;;;;5004882;28;20416;-77
2022/04/01 02:22:44;;;;;;;2.42;1.48;;;;;;;;;;5005946;28;20498;-75
2022/04/01 02:25:11;;;;;;;4.90;1.50;;;;;;;;;;5005887;28;20496;-78
2022/04/01 02:27:38;;;;;;;1.55;1.17;;;;;;;;;;5005185;28;20527;-77
2022/04/01 02:30:10;;;;;;;2.60;1.40;;;;;;;;;;5003260;28;20447;-77
2022/04/01 02:32:37;;;;;;;2.38;1.38;;;;;;;;;;5004999;28;21060;-77
2022/04/01 02:35:04;;;;;;;2.03;1.50;;;;;;;;;;5007910;28;21146;-77
2022/04/01 02:37:31;;;;;;;3.50;1.60;;;;;;;;;;5003651;28;20446;-77
2022/04/01 02:39:57;;;;;;;2.15;1.40;;;;;;;;;;5002955;28;20457;-77
2022/04/01 02:42:23;;;;;;;2.15;1.50;;;;;;;;;;5006327;28;20495;-78
2022/04/01 02:44:49;;;;;;;2.85;1.80;;;;;;;;;;5002759;28;20907;-77
2022/04/01 02:47:16;;;;;;;3.47;2.10;;;;;;;;;;5001219;28;20443;-77
2022/04/01 02:49:44;;;;;;;4.10;1.90;;;;;;;;;;5001049;28;20428;-77
2022/04/01 02:52:10;;;;;;;3.92;2.55;;;;;;;;;;5001040;28;20430;-77
2022/04/01 02:54:37;;;;;;;4.77;2.13;;;;;;;;;;5001709;28;20463;-77
2022/04/01 02:57:04;;;;;;;5.82;2.80;;;;;;;;;;5002047;28;20430;-78
2022/04/01 02:59:30;;;;;;;2.67;2.00;;;;;;;;;;5001923;28;20432;-75
2022/04/01 03:01:57;;;;;;;3.80;1.90;;;;;;;;;;5001677;28;20460;-77
2022/04/01 03:04:23;;;;;;;2.92;1.92;;;;;;;;;;5002206;28;20432;-77
2022/04/01 03:06:51;;;;;;;2.00;1.63;;;;;;;;;;5001821;28;20511;-76
2022/04/01 03:09:17;;;;;;;3.05;2.00;;;;;;;;;;5002667;28;20441;-75
2022/04/01 03:11:44;;;;;;;3.17;1.88;;;;;;;;;;4999713;28;21008;-77
2022/04/01 03:14:11;;;;;;;4.50;2.20;;;;;;;;;;5001418;28;20434;-77
2022/04/01 03:16:38;;;;;;;2.60;1.50;;;;;;;;;;5001793;28;20437;-77
2022/04/01 03:19:08;;;;;;;2.65;1.55;;;;;;;;;;5000661;28;20431;-78
2022/04/01 03:21:35;;;;;;;4.00;1.80;;;;;;;;;;5000937;28;20422;-77
2022/04/01 03:24:03;;;;;;;4.25;1.50;;;;;;;;;;5001754;28;20430;-77
2022/04/01 03:26:29;;;;;;;2.75;1.80;;;;;;;;;;5001502;28;20474;-77
2022/04/01 03:28:55;;;;;;;2.72;1.70;;;;;;;;;;4999709;28;20437;-77
2022/04/01 03:31:22;;;;;;;6.82;1.80;;;;;;;;;;5001023;28;20417;-77
2022/04/01 03:33:48;;;;;;;2.95;1.50;;;;;;;;;;5001026;28;20485;-78
2022/04/01 03:36:15;;;;;;;3.75;1.77;;;;;;;;;;5000948;28;20426;-78
2022/04/01 03:38:41;;;;;;;3.42;1.63;;;;;;;;;;5000048;28;20412;-76
2022/04/01 03:41:10;;;;;;;3.75;1.60;;;;;;;;;;5001652;28;20421;-77
2022/04/01 03:43:37;;;;;;;4.40;1.50;;;;;;;;;;5001308;28;20813;-77
2022/04/01 03:46:06;;;;;;;4.70;1.60;;;;;;;;;;4998158;28;20455;-77
2022/04/01 03:48:35;;;;;;;2.75;1.50;;;;;;;;;;4998084;28;20557;-77
2022/04/01 03:51:04;;;;;;;3.90;1.70;;;;;;;;;;5000422;28;20912;-77
2022/04/01 03:53:31;;;;;;;3.03;1.60;;;;;;;;;;5000513;28;20426;-77
2022/04/01 03:55:58;;;;;;;3.60;1.60;;;;;;;;;;4999741;28;20497;-77
2022/04/01 03:58:28;;;;;;;4.07;1.52;;;;;;;;;;4999686;28;20499;-77
2022/04/01 04:00:54;;;;;;;3.20;1.40;;;;;;;;;;4999810;28;20501;-77
2022/04/01 04:03:21;;;;;;;1.50;1.00;;;;;;;;;;5000213;28;20438;-79
2022/04/01 04:05:48;;;;;;;2.05;1.27;;;;;;;;;;5000768;28;20426;-77
2022/04/01 04:08:17;;;;;;;3.15;1.10;;;;;;;;;;5000446;28;20923;-77
2022/04/01 04:10:46;;;;;;;2.60;1.30;;;;;;;;;;4999324;28;20490;-77
2022/04/01 04:13:12;;;;;;;2.67;1.40;;;;;;;;;;5000555;28;20416;-77
2022/04/01 04:18:14;;;;;;;2.38;1.20;;;;;;;;;;5004358;28;20444;-78
2022/04/01 04:20:41;;;;;;;3.28;1.20;;;;;;;;;;5008172;28;20870;-80
2022/04/01 04:23:10;;;;;;;4.95;1.70;;;;;;;;;;5006420;28;20459;-78
2022/04/01 04:25:37;;;;;;;2.13;1.20;;;;;;;;;;5012643;28;20415;-79
2022/04/01 04:28:08;;;;;;;3.00;1.25;;;;;;;;;;5028029;28;20411;-76
2022/04/01 04:30:38;;;;;;;3.60;1.20;;;;;;;;;;5023081;28;20434;-78
2022/04/01 04:33:05;;;;;;;1.73;1.10;;;;;;;;;;5022916;28;20443;-77
2022/04/01 04:35:36;;;;;;;2.45;1.20;;;;;;;;;;5024331;28;20508;-80
2022/04/01 04:38:02;;;;;;;3.85;1.30;;;;;;;;;;5022198;28;20484;-77
2022/04/01 04:40:29;;;;;;;2.72;1.10;;;;;;;;;;5027215;28;20469;-77
2022/04/01 04:42:55;;;;;;;4.55;1.40;;;;;;;;;;5026221;28;20436;-77
2022/04/01 04:45:22;;;;;;;2.80;1.20;;;;;;;;;;5023747;28;20419;-76
2022/04/01 04:47:48;;;;;;;2.55;1.30;;;;;;;;;;5026724;28;20415;-77
2022/04/01 04:50:16;;;;;;;1.77;1.10;;;;;;;;;;5023635;28;20419;-77
2022/04/01 04:52:46;;;;;;;4.50;1.27;;;;;;;;;;5026143;28;20790;-77
2022/04/01 04:55:14;;;;;;;4.55;1.35;;;;;;;;;;5022623;28;22660;-78
2022/04/01 04:57:42;;;;;;;3.53;1.15;;;;;;;;;;5025792;28;20426;-78
2022/04/01 05:00:10;;;;;;;2.30;1.50;;;;;;;;;;5015325;28;20440;-78
2022/04/01 05:02:43;;;;;;;1.67;1.05;;;;;;;;;;5022142;28;20430;-79
2022/04/01 05:05:15;;;;;;;3.58;1.50;;;;;;;;;;5027847;28;20461;-78
2022/04/01 05:08:00;;;;;;;4.60;1.30;;;;;;;;;;5026054;28;20983;-77
2022/04/01 05:10:30;;;;;;;4.38;1.60;;;;;;;;;;5026955;28;20909;-78
2022/04/01 05:12:58;;;;;;;3.08;1.10;;;;;;;;;;5022864;28;20439;-78
2022/04/01 05:15:26;;;;;;;2.20;1.30;;;;;;;;;;5024984;28;20415;-77
2022/04/01 05:17:54;;;;;;;4.18;1.42;;;;;;;;;;5024713;28;20439;-78
2022/04/01 05:20:23;;;;;;;6.28;1.67;;;;;;;;;;5021861;28;20477;-78
2022/04/01 05:22:56;;;;;;;3.20;1.30;;;;;;;;;;5025313;28;20442;-79
2022/04/01 05:25:25;;;;;;;2.28;1.15;;;;;;;;;;5027797;28;20500;-79
2022/04/01 05:27:52;;;;;;;2.78;1.60;;;;;;;;;;5027385;28;20785;-78
2022/04/01 05:30:20;;;;;;;3.90;1.40;;;;;;;;;;5023406;28;20418;-77
2022/04/01 05:32:57;;;;;;;4.57;1.88;;;;;;;;;;5024025;28;21008;-78
2022/04/01 05:35:26;;;;;;;5.78;1.70;;;;;;;;;;5023713;28;20490;-78
2022/04/01 05:37:54;;;;;;;3.42;1.52;;;;;;;;;;5027956;28;20411;-78
2022/04/01 05:40:21;;;;;;;3.03;1.60;;;;;;;;;;5023804;28;20415;-77
2022/04/01 05:42:48;;;;;;;3.80;1.77;;;;;;;;;;5027339;28;20415;-78
2022/04/01 05:45:15;;;;;;;4.57;1.55;;;;;;;;;;5027196;28;20411;-79
2022/04/01 05:47:41;;;;;;;3.63;1.40;;;;;;;;;;5027535;28;20443;-78
2022/04/01 05:50:08;;;;;;;2.03;1.60;;;;;;;;;;5025150;28;20966;-79
2022/04/01 05:52:36;;;;;;;2.00;1.80;;;;;;;;;;5028974;28;20422;-80
2022/04/01 05:55:04;;;;;;;3.22;1.73;;;;;;;;;;5028668;28;20489;-78
2022/04/01 05:57:31;;;;;;;4.73;1.80;;;;;;;;;;5028561;28;20438;-79
2022/04/01 05:59:57;;;;;;;2.95;1.80;;;;;;;;;;5027474;28;20939;-78
2022/04/01 06:02:48;;;;;;;3.65;1.70;;;;;;;;;;5020195;28;20426;-78
2022/04/01 06:05:17;;;;;;;3.13;1.90;;;;;;;;;;5006591;28;20893;-79
2022/04/01 06:07:51;;;;;;;3.60;2.00;;;;;;;;;;5029067;28;20431;-79
2022/04/01 06:10:21;;;;;;;3.75;2.22;;;;;;;;;;5026967;28;20481;-79
2022/04/01 06:12:55;;;;;;;3.05;2.25;;;;;;;;;;5028731;28;20476;-78
2022/04/01 06:15:26;;;;;;;2.95;2.03;;;;;;;;;;5028306;28;20986;-76
2022/04/01 06:18:01;;;;;;;4.32;2.10;;;;;;;;;;5025995;28;20431;-79
2022/04/01 06:20:29;;;;;;;3.40;2.00;;;;;;;;;;5032097;28;20407;-79
2022/04/01 06:22:58;;;;;;;3.97;2.78;;;;;;;;;;5030310;28;20442;-79
2022/04/01 06:25:29;;;;;;;3.75;2.30;;;;;;;;;;5032629;28;20426;-78
2022/04/01 06:27:58;;;;;;;4.90;2.53;;;;;;;;;;5032773;28;20985;-79
2022/04/01 06:30:24;;;;;;;2.95;2.65;;;;;;;;;;5030118;28;20427;-78
2022/04/01 06:32:53;;;;;;;3.50;2.00;;;;;;;;;;5031274;28;20921;-77
2022/04/01 06:35:24;;;;;;;4.47;2.50;;;;;;;;;;5029370;28;20503;-78
2022/04/01 06:37:54;;;;;;;4.47;2.95;;;;;;;;;;5031135;28;20453;-78
2022/04/01 06:40:22;;;;;;;3.63;2.05;;;;;;;;;;5030984;28;20900;-77
2022/04/01 06:42:51;;;;;;;3.83;2.37;;;;;;;;;;5030146;28;20439;-78
2022/04/01 06:45:17;;;;;;;4.63;2.03;;;;;;;;;;5027639;28;20426;-78
2022/04/01 06:47:45;;;;;;;3.67;2.10;;;;;;;;;;5030550;28;20998;-78
2022/04/01 06:50:12;;;;;;;5.13;2.47;;;;;;;;;;5024841;28;20457;-78
2022/04/01 06:52:38;;;;;;;4.60;2.33;;;;;;;;;;5021650;28;20431;-79
2022/04/01 06:55:06;;;;;;;5.35;2.20;;;;;;;;;;5024718;28;20446;-81
2022/04/01 06:57:32;;;;;;;4.57;2.55;;;;;;;;;;5029298;28;20438;-78
2022/04/01 07:00:00;;;;;;;3.83;2.10;;;;;;;;;;5027022;28;20532;-78
2022/04/01 07:02:26;;;;;;;4.38;2.50;;;;;;;;;;5026882;28;21236;-77
2022/04/01 07:04:52;;;;;;;3.70;2.20;;;;;;;;;;5029977;28;20431;-77
2022/04/01 07:07:19;;;;;;;4.20;2.53;;;;;;;;;;5030206;28;21153;-76
2022/04/01 07:09:45;;;;;;;5.60;2.90;;;;;;;;;;5027168;28;20435;-75
2022/04/01 07:12:11;;;;;;;3.90;2.70;;;;;;;;;;5024334;28;20422;-78
2022/04/01 07:14:38;;;;;;;5.47;2.50;;;;;;;;;;5030576;28;20419;-77
2022/04/01 07:17:06;;;;;;;3.40;2.58;;;;;;;;;;5022622;28;20439;-78
2022/04/01 07:19:32;;;;;;;4.95;2.95;;;;;;;;;;5029391;28;20415;-78
2022/04/01 07:21:58;;;;;;;3.90;2.70;;;;;;;;;;5024503;28;20505;-77
2022/04/01 07:24:25;;;;;;;4.78;2.70;;;;;;;;;;5029150;28;20421;-78
2022/04/01 07:26:52;;;;;;;4.55;2.90;;;;;;;;;;5029077;28;20435;-78
2022/04/01 07:29:18;;;;;;;3.25;2.60;;;;;;;;;;5028144;28;20514;-77
2022/04/01 07:34:35;;;;;;;3.60;2.60;;;;;;;;;;5026090;28;20568;-77
2022/04/01 07:37:02;;;;;;;6.30;2.78;;;;;;;;;;5027621;28;20928;-77
2022/04/01 07:39:28;;;;;;;4.05;2.70;;;;;;;;;;5027009;28;20510;-78
2022/04/01 07:41:54;;;;;;;4.77;2.90;;;;;;;;;;5028859;28;20415;-77
2022/04/01 07:44:21;;;;;;;4.60;2.80;;;;;;;;;;5027769;28;20438;-78
2022/04/01 07:46:48;;;;;;;4.88;2.70;;;;;;;;;;5029055;28;20433;-78
2022/04/01 07:49:14;;;;;;;6.07;2.60;;;;;;;;;;5028615;28;20435;-77
2022/04/01 07:51:43;;;;;;;5.10;3.33;;;;;;;;;;5025680;28;20423;-78
2022/04/01 07:54:09;;;;;;;6.50;3.40;;;;;;;;;;5025924;28;20797;-77
2022/04/01 07:56:36;;;;;;;5.13;3.40;;;;;;;;;;5026896;28;20427;-78
2022/04/01 07:59:04;;;;;;;7.93;3.22;;;;;;;;;;5021818;28;20430;-77
2022/04/01 08:01:30;;;;;;;7.28;4.80;;;;;;;;;;5025804;28;20958;-77
2022/04/01 08:03:56;;;;;;;7.15;3.83;;;;;;;;;;5028186;28;20437;-77
2022/04/01 08:06:23;;;;;;;6.22;3.30;;;;;;;;;;5030051;28;20832;-78
2022/04/01 08:08:50;;;;;;;6.03;3.63;;;;;;;;;;5029623;28;21061;-78
2022/04/01 08:11:17;;;;;;;5.60;3.50;;;;;;;;;;5030266;28;20991;-78
2022/04/01 08:13:43;;;;;;;6.13;3.50;;;;;;;;;;5024968;28;20497;-78
2022/04/01 08:16:11;;;;;;;6.45;3.50;;;;;;;;;;5025781;28;20484;-78
2022/04/01 08:18:37;;;;;;;5.75;4.03;;;;;;;;;;5028943;28;20435;-78
2022/04/01 08:21:04;;;;;;;5.93;3.70;;;;;;;;;;5028519;28;20419;-78
2022/04/01 08:23:34;;;;;;;5.18;3.20;;;;;;;;;;5028041;28;20445;-77
2022/04/01 08:26:02;;;;;;;5.50;3.80;;;;;;;;;;5021261;28;20416;-78
2022/04/01 08:28:28;;;;;;;6.53;3.97;;;;;;;;;;5028122;28;20474;-78
2022/04/01 08:30:54;;;;;;;4.30;3.40;;;;;;;;;;5027249;28;20441;-78
2022/04/01 08:33:20;;;;;;;6.68;4.30;;;;;;;;;;5020237;28;20510;-78
2022/04/01 08:35:47;;;;;;;6.00;3.53;;;;;;;;;;5026803;28;20415;-78
2022/04/01 08:38:13;;;;;;;4.80;3.53;;;;;;;;;;5026894;28;20438;-78
2022/04/01 08:40:39;;;;;;;7.88;3.80;;;;;;;;;;5025510;28;20500;-78
2022/04/01 08:43:07;;;;;;;5.82;3.20;;;;;;;;;;5028167;28;20427;-78
2022/04/01 08:45:35;;;;;;;4.90;3.53;;;;;;;;;;5029772;28;20453;-78
2022/04/01 08:48:02;;;;;;;6.70;3.30;;;;;;;;;;5026071;28;20431;-78
2022/04/01 08:50:29;;;;;;;5.75;3.50;;;;;;;;;;5027107;28;20407;-78
2022/04/01 08:52:55;;;;;;;7.20;3.70;;;;;;;;;;5027663;28;20430;-78
2022/04/01 08:55:21;;;;;;;8.20;4.30;;;;;;;;;;5027055;28;20411;-78
2022/04/01 08:57:47;;;;;;;4.63;3.30;;;;;;;;;;5026185;28;20912;-77
2022/04/01 09:00:32;;;;;;;6.80;3.80;;;;;;;;;;5023028;28;20403;-76
2022/04/01 09:03:01;;;;;;;6.00;3.85;;;;;;;;;;5026213;28;20423;-77
2022/04/01 09:05:27;;;;;;;6.33;3.93;;;;;;;;;;5028584;28;20427;-77
2022/04/01 09:07:59;;;;;;;7.72;4.20;;;;;;;;;;5028570;28;20518;-78
2022/04/01 09:10:25;;;;;;;4.90;3.67;;;;;;;;;;5024864;28;20500;-78
2022/04/01 09:12:52;;;;;;;5.37;4.00;;;;;;;;;;5028678;28;20426;-77
2022/04/01 09:15:19;;;;;;;4.95;3.97;;;;;;;;;;5026098;28;20917;-78
2022/04/01 09:17:46;;;;;;;7.05;4.07;;;;;;;;;;5029214;28;20429;-79
2022/04/01 09:20:15;;;;;;;6.75;3.97;;;;;;;;;;5023401;28;20488;-78
2022/04/01 09:22:42;;;;;;;4.68;4.10;;;;;;;;;;5004699;28;20858;-78
2022/04/01 09:25:09;;;;;;;8.27;4.60;;;;;;;;;;5005664;28;20436;-77
2022/04/01 09:27:39;;;;;;;7.60;4.43;;;;;;;;;;5005669;28;20417;-78
2022/04/01 09:30:06;;;;;;;4.93;3.75;;;;;;;;;;5000965;28;20463;-78
2022/04/01 09:32:36;;;;;;;4.65;3.67;;;;;;;;;;5007561;28;20432;-79
2022/04/01 09:35:02;;;;;;;4.80;3.90;;;;;;;;;;5004491;28;20977;-78
2022/04/01 09:37:37;;;;;;;5.25;4.15;;;;;;;;;;5007909;28;20440;-78
2022/04/01 09:40:04;;;;;;;7.57;4.60;;;;;;;;;;5006987;28;20432;-78
2022/04/01 09:42:30;;;;;;;6.85;4.60;;;;;;;;;;5004743;28;20532;-80
2022/04/01 09:44:58;;;;;;;6.70;4.20;;;;;;;;;;5003050;28;20436;-76
2022/04/01 09:47:24;;;;;;;4.97;3.40;;;;;;;;;;5007287;28;20479;-78
2022/04/01 09:49:52;;;;;;;5.75;4.10;;;;;;;;;;5006232;28;20838;-78
2022/04/01 09:52:20;;;;;;;6.40;3.83;;;;;;;;;;5010780;28;20483;-76
2022/04/01 09:54:48;;;;;;;5.28;3.75;;;;;;;;;;5015486;28;20949;-77
2022/04/01 09:57:15;;;;;;;5.28;3.72;;;;;;;;;;5031666;28;20422;-78
2022/04/01 09:59:42;;;;;;;5.57;4.20;;;;;;;;;;5031543;28;20435;-77
2022/04/01 10:02:09;;;;;;;6.40;4.70;;;;;;;;;;5009864;28;20428;-78
2022/04/01 10:04:35;;;;;;;13.35;7.95;;;;;;;;;;5009816;28;20435;-78
2022/04/01 10:07:02;;;;;;;8.20;4.55;;;;;;;;;;5009805;28;20474;-77
2022/04/01 10:09:30;;;;;;;6.60;3.95;;;;;;;;;;5004128;28;20936;-80
2022/04/01 10:11:58;;;;;;;5.85;3.90;;;;;;;;;;5009527;28;21012;-77
2022/04/01 10:16:54;;;;;;;6.68;4.10;;;;;;;;;;4956512;28;20425;-83
2022/04/01 10:19:23;;;;;;;5.63;4.18;;;;;;;;;;4956366;28;20433;-83
2022/04/01 10:21:51;;;;;;;7.07;3.92;;;;;;;;;;4957705;28;20434;-82
2022/04/01 10:24:23;;;;;;;6.35;4.00;;;;;;;;;;4956534;28;20449;-83
2022/04/01 10:27:06;;;;;;;6.38;4.40;;;;;;;;;;4968517;28;20507;-83
2022/04/01 10:29:34;;;;;;;7.45;4.50;;;;;;;;;;4970513;28;20440;-83
2022/04/01 10:32:15;;;;;;;6.15;3.53;;;;;;;;;;4974094;28;20968;-83
2022/04/01 10:34:46;;;;;;;8.00;4.03;;;;;;;;;;4973206;28;20428;-83
2022/04/01 10:37:14;;;;;;;5.10;3.53;;;;;;;;;;4959104;28;20480;-83
2022/04/01 10:39:47;;;;;;;7.38;3.90;;;;;;;;;;4964851;28;20448;-83
2022/04/01 10:42:13;;;;;;;5.30;3.40;;;;;;;;;;4972128;28;20498;-82
2022/04/01 10:44:48;;;;;;;6.60;3.90;;;;;;;;;;4970282;28;20508;-83
2022/04/01 10:47:14;;;;;;;5.68;3.90;;;;;;;;;;4972446;28;20440;-84
2022/04/01 10:52:25;;;;;;;5.35;3.20;;;;;;;;;;4966755;28;20431;-82
2022/04/01 10:55:06;;;;;;;5.78;3.60;;;;;;;;;;4969318;28;20976;-81
2022/04/01 10:57:34;;;;;;;4.70;3.67;;;;;;;;;;4975436;28;20977;-81
2022/04/01 11:00:02;;;;;;;6.15;3.78;;;;;;;;;;4969123;28;20433;-81
2022/04/01 11:02:29;;;;;;;8.45;4.20;;;;;;;;;;4975900;28;20804;-81
2022/04/01 11:04:55;;;;;;;5.07;4.30;;;;;;;;;;4967011;28;20961;-82
2022/04/01 11:07:33;;;;;;;5.80;4.70;;;;;;;;;;4976418;28;20446;-82
2022/04/01 11:10:00;;;;;;;8.40;5.03;;;;;;;;;;4973441;28;20436;-82
2022/04/01 11:12:29;;;;;;;6.43;4.50;;;;;;;;;;4972892;28;20459;-80
2022/04/01 11:15:11;;;;;;;8.18;4.85;;;;;;;;;;4968367;28;20490;-81
2022/04/01 11:18:00;;;;;;;5.05;4.00;;;;;;;;;;4967093;28;20438;-82
2022/04/01 11:20:27;;;;;;;7.93;5.50;;;;;;;;;;4974945;28;20462;-83
2022/04/01 11:23:00;;;;;;;5.38;4.32;;;;;;;;;;4970746;28;20434;-82
2022/04/01 11:25:44;;;;;;;5.80;4.37;;;;;;;;;;4977044;28;20540;-83
2022/04/01 11:28:12;;;;;;;9.00;4.80;;;;;;;;;;4965565;28;20445;-82
2022/04/01 11:30:43;;;;;;;6.57;5.10;;;;;;;;;;4972738;28;20440;-81
2022/04/01 11:33:11;;;;;;;4.50;4.10;;;;;;;;;;4982609;28;20439;-81
2022/04/01 11:35:39;;;;;;;5.50;3.80;;;;;;;;;;4979655;28;20487;-82
2022/04/01 11:38:07;;;;;;;4.65;4.00;;;;;;;;;;4982744;28;20538;-81
2022/04/01 11:40:34;;;;;;;5.22;3.72;;;;;;;;;;4986745;28;20444;-82
2022/04/01 11:43:02;;;;;;;5.85;3.70;;;;;;;;;;4988128;28;20427;-82
2022/04/01 11:45:29;;;;;;;6.85;3.92;;;;;;;;;;4977990;28;20528;-81
2022/04/01 11:47:57;;;;;;;5.37;3.70;;;;;;;;;;4979160;28;20430;-83
2022/04/01 11:50:24;;;;;;;5.65;3.88;;;;;;;;;;4979850;28;20437;-81
2022/04/01 11:52:52;;;;;;;5.60;3.95;;;;;;;;;;4996112;28;20868;-81
2022/04/01 11:55:20;;;;;;;5.35;3.40;;;;;;;;;;4997784;28;20925;-81
2022/04/01 11:57:46;;;;;;;3.70;3.22;;;;;;;;;;4998956;28;20422;-81
2022/04/01 12:00:14;;;;;;;7.45;4.10;;;;;;;;;;4992853;28;20842;-84
2022/04/01 12:02:41;;;;;;;5.20;3.80;;;;;;;;;;5000352;28;20457;-81
2022/04/01 12:05:09;;;;;;;8.60;3.70;;;;;;;;;;4996765;28;20459;-81
2022/04/01 12:10:20;;;;;;;4.78;3.50;;;;;;;;;;4996920;28;20475;-82
2022/04/01 12:12:53;;;;;;;5.10;2.83;;;;;;;;;;5003801;28;20427;-81
2022/04/01 12:15:29;;;;;;;4.90;3.47;;;;;;;;;;4989237;28;20968;-81
2022/04/01 12:17:55;;;;;;;5.10;3.10;;;;;;;;;;5002765;28;20436;-81
2022/04/01 12:20:23;;;;;;;6.10;3.40;;;;;;;;;;4993011;28;20418;-81
2022/04/01 12:22:51;;;;;;;6.45;3.42;;;;;;;;;;4995454;28;20893;-82
2022/04/01 12:25:19;;;;;;;5.90;3.47;;;;;;;;;;4989201;28;21835;-81
2022/04/01 12:27:52;;;;;;;4.47;3.50;;;;;;;;;;4990692;28;20590;-81
2022/04/01 12:30:27;;;;;;;5.38;3.25;;;;;;;;;;4996763;28;20844;-81
2022/04/01 12:32:54;;;;;;;4.80;3.30;;;;;;;;;;4993341;28;20446;-83
2022/04/01 12:35:22;;;;;;;7.88;3.83;;;;;;;;;;4993994;28;20499;-82
2022/04/01 12:38:01;;;;;;;6.90;3.95;;;;;;;;;;5001922;28;20441;-82
2022/04/01 12:40:27;;;;;;;4.18;3.42;;;;;;;;;;4997212;28;20428;-81
2022/04/01 12:42:54;;;;;;;4.35;3.13;;;;;;;;;;4997634;28;20419;-81
2022/04/01 12:45:20;;;;;;;4.28;3.88;;;;;;;;;;4994394;28;21048;-81
2022/04/01 12:47:46;;;;;;;6.07;3.40;;;;;;;;;;4999366;28;20885;-81
2022/04/01 12:50:27;;;;;;;6.10;3.80;;;;;;;;;;5001682;28;21008;-82
2022/04/01 12:53:07;;;;;;;5.97;4.00;;;;;;;;;;5006126;28;20439;-83
2022/04/01 12:55:33;;;;;;;5.65;3.70;;;;;;;;;;5000483;28;20445;-81
2022/04/01 12:58:00;;;;;;;5.53;3.80;;;;;;;;;;5001888;28;20463;-81
2022/04/01 13:00:26;;;;;;;4.30;3.20;;;;;;;;;;5001587;28;20483;-81
2022/04/01 13:02:53;;;;;;;5.43;3.20;;;;;;;;;;4997964;28;20430;-81
2022/04/01 13:05:19;;;;;;;7.78;3.15;;;;;;;;;;4995227;28;20426;-82
2022/04/01 13:07:46;;;;;;;4.47;3.22;;;;;;;;;;4996605;28;20438;-82
2022/04/01 13:10:16;;;;;;;5.40;3.72;;;;;;;;;;5002936;28;20426;-82
2022/04/01 13:12:43;;;;;;;5.00;3.50;;;;;;;;;;5000631;28;20560;-82
2022/04/01 13:15:10;;;;;;;6.03;3.70;;;;;;;;;;5002193;28;20420;-81
2022/04/01 13:17:43;;;;;;;5.45;3.58;;;;;;;;;;4996128;28;20457;-81
2022/04/01 13:20:10;;;;;;;5.80;4.00;;;;;;;;;;5004308;28;20931;-82
2022/04/01 13:22:36;;;;;;;5.60;3.38;;;;;;;;;;4994500;28;20415;-82
2022/04/01 13:25:05;;;;;;;5.10;3.20;;;;;;;;;;4997223;28;20432;-83
2022/04/01 13:27:32;;;;;;;7.15;3.35;;;;;;;;;;5001842;28;20433;-82
2022/04/01 13:29:59;;;;;;;3.60;3.13;;;;;;;;;;4998130;28;20930;-82
2022/04/01 13:32:26;;;;;;;3.92;3.47;;;;;;;;;;4998638;28;20500;-83
2022/04/01 13:34:52;;;;;;;8.23;3.45;;;;;;;;;;4998665;28;20426;-81
2022/04/01 13:37:19;;;;;;;6.38;3.50;;;;;;;;;;5004202;28;20411;-82
2022/04/01 13:39:46;;;;;;;3.47;3.03;;;;;;;;;;5000789;28;20436;-81
2022/04/01 13:42:12;;;;;;;5.10;3.35;;;;;;;;;;4998658;28;20489;-82
2022/04/01 13:44:40;;;;;;;4.30;3.23;;;;;;;;;;5002115;28;20428;-81
2022/04/01 13:47:06;;;;;;;4.47;2.95;;;;;;;;;;4996090;28;20418;-82
2022/04/01 13:49:32;;;;;;;3.30;2.90;;;;;;;;;;4991843;28;20415;-81
2022/04/01 13:52:00;;;;;;;6.10;3.20;;;;;;;;;;4988991;28;20424;-82
2022/04/01 13:54:27;;;;;;;4.63;3.17;;;;;;;;;;5001166;28;20434;-82
2022/04/01 13:56:54;;;;;;;3.90;2.88;;;;;;;;;;4997237;28;20437;-82
2022/04/01 13:59:20;;;;;;;5.70;4.38;;;;;;;;;;4999559;28;20442;-81
2022/04/01 14:01:48;;;;;;;4.20;3.40;;;;;;;;;;4996782;28;20459;-81
2022/04/01 14:04:16;;;;;;;4.47;3.40;;;;;;;;;;5003242;28;20526;-82
2022/04/01 14:06:42;;;;;;;3.60;3.20;;;;;;;;;;4991830;28;20415;-81
2022/04/01 14:09:09;;;;;;;6.85;3.33;;;;;;;;;;5001011;28;20549;-82
2022/04/01 14:11:35;;;;;;;5.43;2.90;;;;;;;;;;5001302;28;20418;-82
2022/04/01 14:14:02;;;;;;;4.90;2.90;;;;;;;;;;5001306;28;20436;-81
2022/04/01 14:16:28;;;;;;;3.70;3.30;;;;;;;;;;4997917;28;20438;-81
2022/04/01 14:18:56;;;;;;;6.40;3.00;;;;;;;;;;4994742;28;20469;-82
2022/04/01 14:21:22;;;;;;;3.90;2.90;;;;;;;;;;4997009;28;20506;-81
2022/04/01 14:23:48;;;;;;;4.18;3.03;;;;;;;;;;4993246;28;20484;-82
2022/04/01 14:26:14;;;;;;;6.03;3.80;;;;;;;;;;4993489;28;20434;-82
2022/04/01 14:28:42;;;;;;;4.95;3.55;;;;;;;;;;4993716;28;20441;-80
2022/04/01 14:31:08;;;;;;;4.90;3.67;;;;;;;;;;4988717;28;20430;-83
2022/04/01 14:33:35;;;;;;;4.45;3.15;;;;;;;;;;4993247;28;20831;-83
2022/04/01 14:36:03;;;;;;;4.95;3.60;;;;;;;;;;4984996;28;20430;-82
2022/04/01 14:38:30;;;;;;;6.28;3.90;;;;;;;;;;4989579;28;20786;-83
2022/04/01 14:40:57;;;;;;;7.75;3.10;;;;;;;;;;4992146;28;20422;-83
2022/04/01 14:43:24;;;;;;;3.88;3.10;;;;;;;;;;5005433;28;20852;-82
2022/04/01 14:45:50;;;;;;;7.18;3.30;;;;;;;;;;5004547;28;20440;-83
2022/04/01 14:48:16;;;;;;;7.00;3.80;;;;;;;;;;5008067;28;20436;-82
2022/04/01 14:50:43;;;;;;;6.28;4.07;;;;;;;;;;4998486;28;20796;-82
2022/04/01 14:53:12;;;;;;;6.65;3.50;;;;;;;;;;4999736;28;20442;-83
2022/04/01 14:55:38;;;;;;;5.45;3.42;;;;;;;;;;4998521;28;20415;-82
2022/04/01 14:58:05;;;;;;;4.67;3.27;;;;;;;;;;4995815;28;20528;-82
2022/04/01 15:00:33;;;;;;;4.90;3.15;;;;;;;;;;4990277;28;20445;-84
2022/04/01 15:03:00;;;;;;;4.47;3.25;;;;;;;;;;4997258;28;20928;-82
2022/04/01 15:05:26;;;;;;;3.50;3.20;;;;;;;;;;5001928;28;20496;-83
2022/04/01 15:07:53;;;;;;;6.40;3.30;;;;;;;;;;4998017;28;20430;-82